Time;durP1;ratioP1;P1;durP2;ratioP2;P2;SDS_P1;SDS_P2;PMS_P1;PMS_P2;Temp;Humidity;BMP_temperature;BMP_pressure;BME280_temperature;BME280_humidity;BME280_pressure;Samples;Min_cycle;Max_cycle;Signal;HPM_P1;HPM_P2
2022/06/01 00:01:13;;;;;;;1.00;0.83;;;24.60;57.30;;;;;;5075487;28;20848;-79
2022/06/01 00:03:42;;;;;;;1.17;0.93;;;24.60;57.30;;;;;;5091597;28;20444;-79
2022/06/01 00:06:11;;;;;;;1.20;1.00;;;24.60;57.30;;;;;;5095662;28;20798;-79
2022/06/01 00:08:38;;;;;;;1.73;1.17;;;24.60;57.30;;;;;;5094877;28;20436;-79
2022/06/01 00:11:06;;;;;;;1.10;0.90;;;24.60;57.30;;;;;;5095625;28;20446;-79
2022/06/01 00:13:33;;;;;;;2.83;1.20;;;24.60;57.30;;;;;;5095593;28;20441;-79
2022/06/01 00:16:00;;;;;;;1.67;1.40;;;24.60;57.30;;;;;;5095519;28;20439;-79
2022/06/01 00:18:27;;;;;;;1.10;0.90;;;24.60;57.30;;;;;;5095395;28;20506;-79
2022/06/01 00:20:54;;;;;;;1.13;1.00;;;24.60;57.30;;;;;;5081745;28;20843;-78
2022/06/01 00:23:23;;;;;;;1.10;0.90;;;24.60;57.30;;;;;;5075060;28;20788;-78
2022/06/01 00:25:50;;;;;;;1.30;1.20;;;24.60;57.30;;;;;;5075131;28;20444;-78
2022/06/01 00:28:17;;;;;;;1.40;1.00;;;24.60;57.30;;;;;;5075000;28;20459;-78
2022/06/01 00:30:45;;;;;;;1.30;1.00;;;24.60;57.90;;;;;;5074921;28;20462;-79
2022/06/01 00:33:11;;;;;;;1.20;1.03;;;24.60;57.30;;;;;;5086876;28;20463;-78
2022/06/01 00:35:38;;;;;;;1.50;1.10;;;24.50;57.30;;;;;;5095071;28;20447;-78
2022/06/01 00:38:05;;;;;;;1.10;0.90;;;24.50;57.30;;;;;;5095391;28;20440;-79
2022/06/01 00:40:33;;;;;;;4.50;1.00;;;24.50;57.30;;;;;;5092634;28;20483;-79
2022/06/01 00:43:02;;;;;;;1.30;1.00;;;24.60;57.30;;;;;;5095056;28;20435;-79
2022/06/01 00:45:31;;;;;;;2.23;1.17;;;24.60;57.30;;;;;;5095092;28;20794;-78
2022/06/01 00:47:58;;;;;;;1.37;0.90;;;24.60;57.30;;;;;;5094981;28;20447;-79
2022/06/01 00:50:29;;;;;;;1.00;0.80;;;24.60;57.30;;;;;;5089809;28;20437;-79
2022/06/01 00:53:00;;;;;;;1.67;1.10;;;24.60;57.30;;;;;;5074476;28;20441;-78
2022/06/01 00:55:31;;;;;;;1.30;0.97;;;24.50;57.30;;;;;;5079002;28;20948;-79
2022/06/01 00:58:05;;;;;;;1.13;0.93;;;24.60;57.30;;;;;;5094608;28;20444;-78
2022/06/01 01:00:34;;;;;;;1.00;0.90;;;24.60;57.30;;;;;;5094570;28;20491;-79
2022/06/01 01:03:04;;;;;;;1.20;1.10;;;24.50;57.20;;;;;;5093917;28;20443;-79
2022/06/01 01:05:32;;;;;;;1.20;1.10;;;24.60;57.30;;;;;;5094665;28;20440;-78
2022/06/01 01:08:01;;;;;;;1.00;0.80;;;24.50;57.20;;;;;;5094404;28;20978;-79
2022/06/01 01:10:28;;;;;;;1.10;0.97;;;24.60;57.30;;;;;;5094600;28;20440;-79
2022/06/01 01:13:04;;;;;;;1.20;1.00;;;24.50;57.20;;;;;;5094423;28;20447;-79
2022/06/01 01:15:36;;;;;;;1.10;0.80;;;24.60;57.30;;;;;;5094446;28;20446;-79
2022/06/01 01:18:07;;;;;;;1.10;1.00;;;24.60;57.20;;;;;;5090453;28;20547;-79
2022/06/01 01:20:36;;;;;;;1.23;1.10;;;24.60;57.20;;;;;;5074005;28;21008;-79
2022/06/01 01:23:13;;;;;;;1.00;0.80;;;24.50;57.20;;;;;;5073858;28;20433;-79
2022/06/01 01:25:42;;;;;;;1.00;0.80;;;24.60;57.20;;;;;;5074105;28;20444;-79
2022/06/01 01:28:09;;;;;;;1.00;0.80;;;24.60;57.20;;;;;;5074021;28;20445;-79
2022/06/01 01:31:04;;;;;;;1.23;0.90;;;24.60;57.30;;;;;;5073864;28;20469;-79
2022/06/01 01:33:32;;;;;;;1.80;1.13;;;24.60;57.20;;;;;;5078744;28;20439;-79
2022/06/01 01:36:04;;;;;;;1.00;0.80;;;24.50;57.20;;;;;;5093962;28;20447;-79
2022/06/01 01:38:36;;;;;;;1.00;0.90;;;24.50;57.20;;;;;;5093928;28;20497;-79
2022/06/01 01:41:08;;;;;;;1.10;1.00;;;24.60;57.20;;;;;;5093632;28;20483;-79
2022/06/01 01:43:38;;;;;;;1.17;1.00;;;24.60;57.20;;;;;;5093920;28;20779;-79
2022/06/01 01:46:05;;;;;;;1.20;1.00;;;24.50;57.70;;;;;;5093139;28;20440;-79
2022/06/01 01:48:34;;;;;;;1.10;0.90;;;24.50;57.20;;;;;;5093867;28;20954;-79
2022/06/01 01:51:02;;;;;;;1.00;0.80;;;24.50;57.20;;;;;;5093956;28;20436;-79
2022/06/01 01:53:29;;;;;;;1.67;1.00;;;24.50;57.20;;;;;;5093718;28;20440;-78
2022/06/01 01:56:20;;;;;;;1.00;0.80;;;24.60;57.20;;;;;;5093691;28;20440;-79
2022/06/01 01:59:03;;;;;;;1.10;0.90;;;24.60;57.20;;;;;;5093632;28;20455;-79
2022/06/01 02:01:40;;;;;;;1.20;0.90;;;24.50;57.20;;;;;;5093483;28;20502;-79
2022/06/01 02:06:03;;;;;;;1.23;1.00;;;24.50;57.10;;;;;;5093518;28;20452;-79
2022/06/01 02:07:03;;;;;;;1.60;1.00;;;24.50;57.20;;;;;;5093414;28;20947;-79
2022/06/01 02:12:41;;;;;;;1.00;0.80;;;24.50;57.20;;;;;;5091806;28;20838;-79
2022/06/01 02:15:06;;;;;;;1.17;0.83;;;24.50;57.10;;;;;;5073441;28;20509;-79
2022/06/01 02:17:37;;;;;;;1.17;1.07;;;24.50;57.20;;;;;;5085365;28;20487;-79
2022/06/01 02:20:10;;;;;;;1.00;0.80;;;24.50;57.20;;;;;;5093377;28;20539;-79
2022/06/01 02:22:38;;;;;;;1.00;0.80;;;24.50;57.20;;;;;;5093694;28;20436;-79
2022/06/01 02:25:05;;;;;;;1.10;0.80;;;24.50;57.20;;;;;;5093445;28;20452;-79
2022/06/01 02:27:33;;;;;;;1.77;1.20;;;24.50;57.20;;;;;;5093276;28;20451;-79
2022/06/01 02:30:07;;;;;;;1.30;0.80;;;24.50;57.20;;;;;;5093276;28;20440;-79
2022/06/01 02:32:34;;;;;;;1.93;1.20;;;24.50;57.20;;;;;;5093361;28;20447;-79
2022/06/01 02:35:05;;;;;;;2.40;0.90;;;24.50;57.10;;;;;;5093241;28;20440;-79
2022/06/01 02:37:33;;;;;;;1.50;0.90;;;24.50;57.10;;;;;;5093162;28;20445;-79
2022/06/01 02:40:04;;;;;;;1.37;0.80;;;24.50;57.10;;;;;;5093193;28;20440;-79
2022/06/01 02:42:33;;;;;;;1.10;1.00;;;24.50;57.10;;;;;;5075239;28;20451;-80
2022/06/01 02:45:04;;;;;;;1.00;0.87;;;24.50;57.10;;;;;;5074138;28;20467;-79
2022/06/01 02:47:32;;;;;;;1.00;0.90;;;24.50;57.10;;;;;;5073096;28;20440;-79
2022/06/01 02:50:00;;;;;;;1.00;0.90;;;24.50;57.10;;;;;;5081144;28;20440;-80
2022/06/01 02:52:28;;;;;;;1.20;0.90;;;24.50;57.10;;;;;;5093034;28;20463;-79
2022/06/01 02:54:55;;;;;;;1.00;0.87;;;24.50;57.10;;;;;;5093001;28;20493;-79
2022/06/01 02:57:22;;;;;;;1.03;0.87;;;24.50;57.10;;;;;;5092994;28;20436;-79
2022/06/01 02:59:52;;;;;;;1.10;1.00;;;24.50;57.10;;;;;;5093155;28;20438;-79
2022/06/01 03:02:19;;;;;;;1.20;1.00;;;24.50;57.10;;;;;;5091024;28;20480;-79
2022/06/01 03:04:47;;;;;;;1.10;0.97;;;24.50;57.10;;;;;;5093044;28;20446;-79
2022/06/01 03:07:14;;;;;;;1.10;0.93;;;24.50;57.10;;;;;;5093091;28;20515;-80
2022/06/01 03:09:41;;;;;;;1.10;0.90;;;24.50;57.10;;;;;;5091462;28;20444;-79
2022/06/01 03:12:09;;;;;;;2.17;1.00;;;24.50;57.10;;;;;;5093037;28;20443;-78
2022/06/01 03:14:36;;;;;;;1.10;1.00;;;24.50;57.10;;;;;;5092865;28;20480;-81
2022/06/01 03:17:06;;;;;;;1.43;0.90;;;24.50;57.10;;;;;;5092674;28;20436;-79
2022/06/01 03:19:33;;;;;;;1.00;0.90;;;24.50;57.10;;;;;;5088299;28;20448;-79
2022/06/01 03:22:01;;;;;;;1.30;1.00;;;24.50;57.10;;;;;;5072438;28;20485;-79
2022/06/01 03:24:28;;;;;;;1.00;0.80;;;24.50;57.10;;;;;;5072975;28;20440;-79
2022/06/01 03:26:55;;;;;;;1.13;0.97;;;24.50;57.10;;;;;;5077176;28;20456;-81
2022/06/01 03:29:22;;;;;;;1.00;0.80;;;24.50;57.10;;;;;;5076220;28;20433;-79
2022/06/01 03:31:48;;;;;;;1.00;0.80;;;24.50;57.10;;;;;;5092230;28;20464;-79
2022/06/01 03:34:17;;;;;;;1.50;1.23;;;24.50;57.10;;;;;;5096218;28;20436;-79
2022/06/01 03:36:43;;;;;;;1.00;0.90;;;24.50;57.10;;;;;;5096321;28;20440;-79
2022/06/01 03:39:10;;;;;;;1.00;0.80;;;24.50;57.10;;;;;;5096365;28;20436;-79
2022/06/01 03:41:37;;;;;;;1.00;0.90;;;24.50;57.10;;;;;;5096023;28;20490;-79
2022/06/01 03:46:48;;;;;;;1.07;0.90;;;24.50;57.10;;;;;;5096368;28;20427;-79
2022/06/01 03:49:17;;;;;;;1.00;0.90;;;24.40;57.10;;;;;;5092359;28;20445;-79
2022/06/01 03:51:43;;;;;;;1.00;0.80;;;24.40;57.00;;;;;;5075842;28;20445;-79
2022/06/01 03:54:10;;;;;;;1.00;0.80;;;24.40;57.00;;;;;;5076632;28;20441;-79
2022/06/01 03:56:37;;;;;;;1.10;0.90;;;24.40;57.00;;;;;;5075652;28;20437;-79
2022/06/01 03:59:04;;;;;;;1.00;0.87;;;24.40;57.00;;;;;;5075556;28;20811;-79
2022/06/01 04:01:31;;;;;;;1.00;0.90;;;24.40;57.00;;;;;;5088550;28;20488;-79
2022/06/01 04:03:58;;;;;;;1.00;0.90;;;24.40;57.00;;;;;;5095649;28;20437;-79
2022/06/01 04:06:26;;;;;;;1.07;0.80;;;24.40;57.00;;;;;;5095801;28;20440;-79
2022/06/01 04:08:53;;;;;;;1.00;0.90;;;24.40;57.60;;;;;;5095614;28;20436;-80
2022/06/01 04:11:19;;;;;;;1.10;0.90;;;24.40;57.00;;;;;;5092407;28;20515;-82
2022/06/01 04:13:46;;;;;;;1.40;0.80;;;24.40;57.00;;;;;;5095607;28;20440;-80
2022/06/01 04:16:14;;;;;;;1.10;0.90;;;24.40;57.00;;;;;;5083134;28;20433;-81
2022/06/01 04:18:40;;;;;;;1.07;0.97;;;24.40;57.00;;;;;;5075157;28;20468;-80
2022/06/01 04:21:07;;;;;;;1.10;0.80;;;24.40;57.00;;;;;;5086226;28;20471;-79
2022/06/01 04:23:35;;;;;;;1.10;0.90;;;24.40;57.00;;;;;;5095512;28;20786;-80
2022/06/01 04:26:03;;;;;;;1.10;1.00;;;24.40;57.00;;;;;;5087984;28;20440;-84
2022/06/01 04:28:30;;;;;;;1.23;1.10;;;24.40;57.00;;;;;;5085882;28;20440;-80
2022/06/01 04:30:57;;;;;;;1.40;1.10;;;24.40;57.00;;;;;;5088592;28;20456;-79
2022/06/01 04:33:26;;;;;;;1.10;0.87;;;24.40;57.00;;;;;;5085051;28;20937;-82
2022/06/01 04:35:53;;;;;;;1.07;0.80;;;24.40;57.00;;;;;;5081696;28;20532;-80
2022/06/01 04:38:20;;;;;;;1.00;0.73;;;24.40;57.00;;;;;;5081019;28;20429;-84
2022/06/01 04:40:50;;;;;;;1.00;0.87;;;24.40;57.00;;;;;;5085611;28;20440;-80
2022/06/01 04:43:19;;;;;;;1.10;1.00;;;24.40;57.00;;;;;;5085516;28;20441;-79
2022/06/01 04:45:46;;;;;;;1.10;1.00;;;24.40;57.00;;;;;;5088321;28;20445;-85
2022/06/01 04:48:13;;;;;;;1.00;0.90;;;24.40;57.10;;;;;;5080007;28;20429;-85
2022/06/01 04:50:42;;;;;;;1.10;1.00;;;24.40;57.10;;;;;;5074670;28;20441;-83
2022/06/01 04:53:09;;;;;;;1.00;0.80;;;24.40;57.10;;;;;;5074427;28;20440;-84
2022/06/01 04:55:36;;;;;;;1.03;0.83;;;24.40;57.10;;;;;;5074505;28;20444;-79
2022/06/01 04:58:04;;;;;;;1.20;1.10;;;24.40;57.10;;;;;;5074646;28;20790;-79
2022/06/01 05:00:31;;;;;;;1.10;1.00;;;24.40;57.10;;;;;;5074572;28;20465;-78
2022/06/01 05:02:57;;;;;;;1.30;0.90;;;24.40;57.10;;;;;;5074626;28;20499;-79
2022/06/01 05:05:24;;;;;;;1.33;1.23;;;24.40;57.20;;;;;;5074128;28;20444;-77
2022/06/01 05:07:51;;;;;;;1.10;1.00;;;24.40;57.20;;;;;;5088683;28;20445;-82
2022/06/01 05:10:19;;;;;;;1.20;0.90;;;24.40;57.30;;;;;;5073664;28;20441;-84
2022/06/01 05:12:46;;;;;;;1.20;1.00;;;24.40;57.40;;;;;;5072265;28;20452;-81
2022/06/01 05:15:14;;;;;;;1.30;1.10;;;24.40;57.40;;;;;;5072813;28;20445;-80
2022/06/01 05:17:41;;;;;;;1.67;1.13;;;24.40;57.50;;;;;;5073388;28;20476;-81
2022/06/01 05:20:09;;;;;;;1.47;1.30;;;24.40;57.60;;;;;;5087914;28;20939;-79
2022/06/01 05:22:36;;;;;;;1.47;1.20;;;24.40;57.60;;;;;;5092851;28;20487;-79
2022/06/01 05:25:04;;;;;;;1.40;1.10;;;24.30;57.70;;;;;;5093907;28;20922;-79
2022/06/01 05:27:31;;;;;;;2.90;1.40;;;24.30;57.80;;;;;;5088607;28;20507;-79
2022/06/01 05:29:58;;;;;;;1.73;1.00;;;24.30;57.90;;;;;;5093940;28;20564;-78
2022/06/01 05:32:26;;;;;;;1.40;1.20;;;24.30;57.90;;;;;;5074408;28;20985;-79
2022/06/01 05:34:52;;;;;;;1.13;1.00;;;24.30;57.90;;;;;;5091892;28;20844;-79
2022/06/01 05:37:19;;;;;;;1.50;1.27;;;24.40;58.10;;;;;;5089054;28;20444;-79
2022/06/01 05:39:47;;;;;;;1.50;1.20;;;24.40;58.20;;;;;;5092614;28;20432;-78
2022/06/01 05:42:14;;;;;;;1.10;0.97;;;24.30;58.20;;;;;;5089241;28;20479;-79
2022/06/01 05:44:41;;;;;;;2.27;1.30;;;24.30;58.20;;;;;;5093863;28;20444;-80
2022/06/01 05:47:08;;;;;;;2.70;1.17;;;24.30;58.10;;;;;;5093223;28;20962;-83
2022/06/01 05:49:36;;;;;;;1.30;1.00;;;24.40;58.10;;;;;;5084239;28;20449;-78
2022/06/01 05:52:03;;;;;;;2.60;1.30;;;24.40;58.00;;;;;;5074894;28;20449;-79
2022/06/01 05:54:30;;;;;;;3.20;1.30;;;24.40;58.10;;;;;;5081673;28;20448;-90
2022/06/01 05:56:56;;;;;;;2.80;1.57;;;24.40;58.10;;;;;;5088524;28;20441;-86
2022/06/01 05:59:23;;;;;;;1.20;1.10;;;24.40;58.30;;;;;;5093729;28;20443;-84
2022/06/01 06:01:50;;;;;;;1.80;1.70;;;24.40;58.30;;;;;;5090686;28;20475;-81
2022/06/01 06:04:18;;;;;;;1.40;1.30;;;24.40;58.30;;;;;;5093501;28;20451;-83
2022/06/01 06:06:46;;;;;;;1.70;1.40;;;24.40;58.30;;;;;;5087410;28;20444;-81
2022/06/01 06:09:12;;;;;;;1.80;1.47;;;24.40;58.40;;;;;;5087084;28;20441;-79
2022/06/01 06:11:41;;;;;;;2.57;1.30;;;24.40;58.40;;;;;;5092788;28;20451;-79
2022/06/01 06:14:08;;;;;;;1.97;1.10;;;24.40;58.20;;;;;;5092831;28;20471;-90
2022/06/01 06:16:40;;;;;;;1.40;1.30;;;24.40;58.30;;;;;;5093168;28;20450;-81
2022/06/01 06:19:07;;;;;;;1.83;1.70;;;24.40;58.40;;;;;;5093012;28;20529;-79
2022/06/01 06:21:33;;;;;;;3.27;1.80;;;24.40;58.50;;;;;;5074819;28;20477;-79
2022/06/01 06:24:03;;;;;;;2.43;1.60;;;24.40;58.80;;;;;;5081366;28;20454;-79
2022/06/01 06:26:30;;;;;;;3.57;1.40;;;24.40;58.60;;;;;;5079450;28;20808;-79
2022/06/01 06:28:57;;;;;;;1.60;1.50;;;24.40;58.60;;;;;;5082126;28;20951;-89
2022/06/01 06:31:24;;;;;;;2.90;1.70;;;24.40;58.60;;;;;;5074196;28;20441;-89
2022/06/01 06:33:51;;;;;;;2.00;1.80;;;24.40;58.60;;;;;;5085092;28;20443;-90
2022/06/01 06:36:17;;;;;;;5.27;4.80;;;24.40;58.60;;;;;;5084260;28;20920;-83
2022/06/01 06:38:44;;;;;;;2.93;2.73;;;24.40;59.00;;;;;;5081522;28;20805;-84
2022/06/01 06:41:17;;;;;;;4.10;2.20;;;24.40;59.00;;;;;;5090354;28;20436;-85
2022/06/01 06:43:44;;;;;;;1.73;1.63;;;24.40;58.80;;;;;;5084620;28;20808;-84
2022/06/01 06:46:13;;;;;;;3.43;1.90;;;24.40;58.70;;;;;;5072780;28;20448;-81
2022/06/01 06:48:40;;;;;;;5.40;1.90;;;24.40;58.60;;;;;;5079365;28;20531;-84
2022/06/01 06:51:08;;;;;;;2.90;2.13;;;24.40;58.40;;;;;;5093339;28;20435;-79
2022/06/01 06:53:35;;;;;;;5.63;1.60;;;24.40;58.40;;;;;;5093141;28;20471;-79
2022/06/01 06:56:03;;;;;;;2.00;1.63;;;24.50;58.30;;;;;;5093112;28;20753;-79
2022/06/01 06:58:31;;;;;;;1.87;1.57;;;24.50;58.20;;;;;;5093105;28;20444;-79
2022/06/01 07:00:58;;;;;;;2.00;1.73;;;24.50;58.20;;;;;;5096008;28;20470;-79
2022/06/01 07:03:25;;;;;;;6.10;1.50;;;24.50;58.10;;;;;;5096828;28;20558;-79
2022/06/01 07:06:12;;;;;;;1.80;1.70;;;24.50;58.00;;;;;;5097268;28;20440;-79
2022/06/01 07:08:41;;;;;;;1.67;1.57;;;24.50;58.00;;;;;;5096533;28;20447;-77
2022/06/01 07:11:08;;;;;;;3.57;2.00;;;24.50;58.00;;;;;;5096088;28;20436;-81
2022/06/01 07:13:36;;;;;;;2.20;1.43;;;24.50;58.00;;;;;;5096571;28;20439;-81
2022/06/01 07:16:06;;;;;;;2.10;1.80;;;24.50;58.40;;;;;;5096647;28;20447;-82
2022/06/01 07:18:34;;;;;;;5.53;3.07;;;24.50;58.40;;;;;;5096856;28;20472;-81
2022/06/01 07:21:01;;;;;;;4.93;3.50;;;24.50;58.40;;;;;;5096777;28;20440;-81
2022/06/01 07:23:28;;;;;;;3.70;2.63;;;24.40;58.70;;;;;;5096524;28;20541;-81
2022/06/01 07:25:55;;;;;;;6.23;3.70;;;24.40;58.90;;;;;;5096803;28;20447;-81
2022/06/01 07:28:22;;;;;;;2.23;2.03;;;24.40;58.90;;;;;;5096496;28;20448;-83
2022/06/01 07:30:56;;;;;;;6.50;1.90;;;24.40;58.70;;;;;;5096715;28;20450;-82
2022/06/01 07:33:24;;;;;;;3.93;1.77;;;24.50;58.70;;;;;;5096559;28;20535;-82
2022/06/01 07:35:51;;;;;;;2.20;1.80;;;24.40;58.70;;;;;;5096506;28;20443;-82
2022/06/01 07:43:46;;;;;;;2.00;1.27;;;24.40;58.80;;;;;;5096258;28;20478;-83
2022/06/01 07:46:15;;;;;;;1.53;1.27;;;24.40;58.70;;;;;;5096533;28;20812;-83
2022/06/01 07:48:41;;;;;;;3.90;1.83;;;24.40;58.70;;;;;;5095900;28;20470;-83
2022/06/01 07:51:08;;;;;;;3.20;1.83;;;24.50;58.60;;;;;;5096214;28;20444;-82
2022/06/01 07:53:35;;;;;;;1.70;1.53;;;24.40;58.60;;;;;;5095953;28;20456;-83
2022/06/01 07:56:02;;;;;;;2.13;1.40;;;24.50;58.70;;;;;;5095693;28;20547;-83
2022/06/01 07:58:29;;;;;;;1.57;1.43;;;24.40;58.60;;;;;;5095757;28;20939;-82
2022/06/01 08:00:55;;;;;;;1.97;1.80;;;24.50;58.70;;;;;;5095851;28;20436;-82
2022/06/01 08:03:23;;;;;;;1.67;1.57;;;24.40;58.60;;;;;;5096099;28;20842;-83
2022/06/01 08:05:50;;;;;;;1.60;1.33;;;24.50;58.60;;;;;;5096353;28;20445;-83
2022/06/01 08:08:17;;;;;;;3.57;2.00;;;24.40;58.50;;;;;;5095868;28;20428;-83
2022/06/01 08:10:44;;;;;;;1.50;1.40;;;24.50;58.50;;;;;;5095728;28;20446;-83
2022/06/01 08:13:11;;;;;;;2.70;1.33;;;24.50;58.50;;;;;;5096008;28;20438;-83
2022/06/01 08:15:41;;;;;;;1.70;1.60;;;24.50;58.50;;;;;;5095922;28;20432;-83
2022/06/01 08:18:09;;;;;;;1.60;1.50;;;24.50;58.40;;;;;;5095585;28;20470;-83
2022/06/01 08:20:38;;;;;;;1.27;1.17;;;24.50;58.50;;;;;;5095844;28;20498;-83
2022/06/01 08:23:06;;;;;;;2.03;1.70;;;24.50;58.30;;;;;;5095504;28;20557;-86
2022/06/01 08:25:34;;;;;;;2.50;1.67;;;24.50;58.40;;;;;;5095745;28;20435;-83
2022/06/01 08:28:01;;;;;;;1.57;1.40;;;24.60;58.40;;;;;;5095564;28;20952;-83
2022/06/01 08:30:30;;;;;;;2.30;1.80;;;24.60;58.30;;;;;;5095379;28;20444;-86
2022/06/01 08:32:57;;;;;;;2.90;1.80;;;24.60;58.30;;;;;;5095524;28;20428;-83
2022/06/01 08:35:27;;;;;;;1.53;1.43;;;24.60;58.30;;;;;;5095258;28;20439;-83
2022/06/01 08:37:55;;;;;;;3.33;1.60;;;24.60;58.30;;;;;;5095362;28;20444;-83
2022/06/01 08:40:28;;;;;;;1.70;1.60;;;24.60;58.20;;;;;;5095213;28;20451;-83
2022/06/01 08:43:00;;;;;;;1.30;1.20;;;24.60;58.20;;;;;;5095156;28;20571;-83
2022/06/01 08:45:28;;;;;;;1.63;1.53;;;24.60;58.20;;;;;;5095127;28;20927;-83
2022/06/01 08:47:55;;;;;;;1.80;1.70;;;24.60;58.20;;;;;;5095344;28;20439;-83
2022/06/01 08:50:27;;;;;;;1.50;1.40;;;24.60;58.20;;;;;;5094919;28;20443;-83
2022/06/01 08:52:59;;;;;;;1.87;1.20;;;24.70;58.20;;;;;;5094877;28;20452;-83
2022/06/01 08:55:42;;;;;;;1.57;1.47;;;24.60;58.20;;;;;;5095013;28;20814;-83
2022/06/01 08:58:14;;;;;;;1.50;1.40;;;24.60;58.20;;;;;;5095192;28;20534;-83
2022/06/01 09:00:47;;;;;;;1.40;1.30;;;24.60;58.10;;;;;;5095246;28;20428;-84
2022/06/01 09:03:20;;;;;;;1.30;1.20;;;24.60;58.10;;;;;;5094708;28;21016;-83
2022/06/01 09:05:52;;;;;;;1.37;1.27;;;24.60;58.10;;;;;;5093652;28;20432;-85
2022/06/01 09:08:29;;;;;;;2.13;1.50;;;24.50;58.10;;;;;;5094906;28;20923;-83
2022/06/01 09:11:03;;;;;;;3.93;1.40;;;24.60;58.10;;;;;;5094769;28;20514;-83
2022/06/01 09:13:38;;;;;;;4.10;1.40;;;24.60;58.10;;;;;;5094685;28;20436;-83
2022/06/01 09:16:10;;;;;;;1.47;1.37;;;24.60;58.00;;;;;;5094724;28;20442;-83
2022/06/01 09:18:42;;;;;;;1.50;1.40;;;24.60;58.00;;;;;;5094360;28;20478;-83
2022/06/01 09:24:12;;;;;;;1.40;1.30;;;24.60;58.00;;;;;;5094051;28;20483;-83
2022/06/01 09:26:55;;;;;;;1.83;1.60;;;24.60;58.10;;;;;;5094622;28;20439;-83
2022/06/01 09:29:24;;;;;;;2.07;1.30;;;24.60;58.10;;;;;;5094095;28;20802;-83
2022/06/01 09:31:57;;;;;;;1.20;1.10;;;24.60;58.10;;;;;;5094357;28;20541;-86
2022/06/01 09:34:28;;;;;;;1.80;1.37;;;24.60;58.00;;;;;;5094146;28;20805;-83
2022/06/01 09:37:05;;;;;;;1.40;1.30;;;24.60;58.10;;;;;;5094281;28;20440;-85
2022/06/01 09:39:34;;;;;;;1.67;1.30;;;24.60;58.00;;;;;;5092847;28;20474;-83
2022/06/01 09:42:25;;;;;;;1.80;1.40;;;24.60;58.00;;;;;;5094245;28;20436;-83
2022/06/01 09:44:53;;;;;;;1.30;1.20;;;24.70;57.90;;;;;;5094139;28;20439;-83
2022/06/01 09:47:37;;;;;;;2.40;1.40;;;24.70;58.00;;;;;;5094369;28;20432;-83
2022/06/01 09:50:06;;;;;;;1.40;1.10;;;24.70;57.90;;;;;;5094144;28;20439;-83
2022/06/01 09:52:39;;;;;;;1.33;1.23;;;24.70;58.10;;;;;;5093952;28;20455;-83
2022/06/01 09:55:16;;;;;;;1.30;1.20;;;24.70;57.80;;;;;;5093795;28;20440;-83
2022/06/01 09:57:44;;;;;;;5.63;1.20;;;24.60;57.80;;;;;;5093643;28;20442;-83
2022/06/01 10:06:25;;;;;;;2.43;1.40;;;24.50;57.30;;;;;;5093592;28;20800;-83
2022/06/01 10:09:01;;;;;;;2.70;1.37;;;24.50;57.50;;;;;;5092531;28;20490;-83
2022/06/01 10:11:33;;;;;;;3.20;1.43;;;24.50;57.50;;;;;;5093445;28;20424;-83
2022/06/01 10:14:12;;;;;;;1.60;1.50;;;24.50;57.60;;;;;;5093088;28;20960;-82
2022/06/01 10:16:48;;;;;;;2.70;1.47;;;24.50;57.70;;;;;;5094058;28;20497;-82
2022/06/01 10:19:19;;;;;;;3.40;1.90;;;24.50;57.10;;;;;;5093433;28;20466;-86
2022/06/01 10:21:53;;;;;;;3.97;2.20;;;24.50;57.00;;;;;;5093838;28;20448;-85
2022/06/01 10:24:26;;;;;;;4.50;2.23;;;24.40;56.70;;;;;;5093088;28;20849;-85
2022/06/01 10:26:59;;;;;;;2.37;1.87;;;24.30;56.00;;;;;;5093642;28;20452;-85
2022/06/01 10:29:30;;;;;;;3.67;1.70;;;24.20;55.80;;;;;;5093649;28;20443;-84
2022/06/01 10:32:01;;;;;;;1.90;1.63;;;24.10;55.90;;;;;;5093492;28;20446;-86
2022/06/01 10:34:34;;;;;;;2.43;2.23;;;24.10;55.90;;;;;;5095849;28;20448;-84
2022/06/01 10:37:07;;;;;;;1.43;1.33;;;24.10;55.90;;;;;;5097698;28;20451;-80
2022/06/01 10:39:41;;;;;;;1.50;1.40;;;24.20;56.00;;;;;;5096674;28;20444;-81
2022/06/01 10:42:17;;;;;;;2.60;1.17;;;24.20;56.20;;;;;;5099346;28;20442;-84
2022/06/01 10:44:50;;;;;;;1.80;1.20;;;24.20;56.40;;;;;;5096510;28;20483;-80
2022/06/01 10:47:22;;;;;;;1.93;1.50;;;24.30;56.60;;;;;;5096792;28;20444;-79
2022/06/01 10:49:57;;;;;;;3.47;1.70;;;24.40;56.60;;;;;;5097268;28;20444;-79
2022/06/01 10:52:30;;;;;;;2.47;1.63;;;24.40;55.70;;;;;;5097133;28;20435;-80
2022/06/01 10:55:07;;;;;;;3.63;1.50;;;24.40;55.60;;;;;;5097118;28;20435;-80
2022/06/01 10:57:39;;;;;;;1.70;1.60;;;24.40;55.70;;;;;;5097031;28;20435;-80
2022/06/01 11:00:07;;;;;;;4.23;2.10;;;24.40;55.50;;;;;;5097030;28;20526;-79
2022/06/01 11:03:12;;;;;;;2.50;1.70;;;24.40;55.30;;;;;;5097012;28;20802;-80
2022/06/01 11:05:47;;;;;;;5.57;2.03;;;24.50;55.30;;;;;;5078109;28;20501;-79
2022/06/01 11:08:28;;;;;;;1.97;1.50;;;24.40;55.30;;;;;;5096969;28;20431;-79
2022/06/01 11:11:10;;;;;;;2.37;1.70;;;24.50;55.60;;;;;;5096576;28;20444;-79
2022/06/01 11:14:02;;;;;;;2.07;1.60;;;24.50;55.80;;;;;;5096982;28;20804;-79
2022/06/01 11:16:40;;;;;;;3.10;1.57;;;24.50;55.90;;;;;;5097053;28;20447;-79
2022/06/01 11:19:18;;;;;;;1.50;1.30;;;24.50;56.10;;;;;;5096557;28;20463;-79
2022/06/01 11:21:50;;;;;;;1.40;1.30;;;24.70;56.30;;;;;;5096561;28;20440;-79
2022/06/01 11:24:41;;;;;;;1.40;1.30;;;24.60;56.20;;;;;;5096315;28;20494;-86
2022/06/01 11:27:22;;;;;;;4.20;1.40;;;24.70;56.30;;;;;;5096135;28;20443;-80
2022/06/01 11:30:04;;;;;;;3.67;1.13;;;24.70;56.40;;;;;;5096269;28;20440;-79
2022/06/01 11:32:38;;;;;;;6.00;1.30;;;24.70;56.40;;;;;;5095105;28;20439;-79
2022/06/01 11:35:13;;;;;;;1.40;1.13;;;24.70;56.40;;;;;;5096076;28;20538;-79
2022/06/01 11:37:49;;;;;;;1.40;1.27;;;24.70;56.40;;;;;;5095342;28;20450;-78
2022/06/01 11:40:21;;;;;;;2.00;1.33;;;24.80;56.50;;;;;;5094803;28;20960;-78
2022/06/01 11:42:55;;;;;;;1.40;1.30;;;24.80;56.60;;;;;;5094630;28;20444;-78
2022/06/01 11:45:29;;;;;;;2.37;1.20;;;24.80;56.50;;;;;;5094235;28;20452;-78
2022/06/01 11:48:02;;;;;;;1.60;1.10;;;24.80;56.50;;;;;;5095554;28;20444;-78
2022/06/01 11:50:48;;;;;;;1.80;1.50;;;24.80;56.60;;;;;;5095181;28;20475;-78
2022/06/01 11:53:23;;;;;;;1.60;0.97;;;24.80;57.10;;;;;;5095304;28;20962;-84
2022/06/01 11:55:50;;;;;;;1.40;1.30;;;24.80;56.50;;;;;;5095961;28;20431;-79
2022/06/01 11:58:39;;;;;;;1.50;1.10;;;24.80;56.60;;;;;;5094620;28;20436;-78
2022/06/01 12:01:14;;;;;;;3.50;1.70;;;24.90;56.60;;;;;;5095770;28;20432;-81
2022/06/01 12:03:56;;;;;;;1.33;1.10;;;24.90;56.60;;;;;;5096253;28;20490;-87
2022/06/01 12:06:47;;;;;;;2.50;1.00;;;24.90;56.60;;;;;;5096540;28;20844;-83
2022/06/01 12:09:32;;;;;;;2.03;0.90;;;24.90;56.60;;;;;;5095696;28;20951;-83
2022/06/01 12:12:01;;;;;;;1.20;1.00;;;24.80;56.60;;;;;;5095538;28;20439;-90
2022/06/01 12:14:35;;;;;;;2.63;1.00;;;24.90;56.70;;;;;;5095144;28;20442;-83
2022/06/01 12:17:32;;;;;;;1.20;1.10;;;24.80;56.70;;;;;;5095707;28;20431;-83
2022/06/01 12:20:20;;;;;;;1.37;1.00;;;24.80;56.60;;;;;;5060529;28;20445;-87
2022/06/01 12:28:47;;;;;;;1.20;0.90;;;24.80;56.70;;;;;;5094527;28;20937;-86
2022/06/01 12:31:17;;;;;;;1.93;1.20;;;24.80;56.80;;;;;;5095546;28;20426;-83
2022/06/01 12:34:08;;;;;;;1.20;1.00;;;24.80;56.70;;;;;;5095404;28;20432;-85
2022/06/01 12:36:43;;;;;;;1.40;1.00;;;24.90;56.70;;;;;;5095665;28;20437;-89
2022/06/01 12:39:14;;;;;;;1.40;1.10;;;24.80;56.70;;;;;;5095591;28;20435;-83
2022/06/01 12:41:45;;;;;;;1.67;1.20;;;24.80;56.70;;;;;;5095100;28;20970;-82
2022/06/01 12:44:13;;;;;;;5.27;1.23;;;24.90;56.80;;;;;;5095543;28;20487;-89
2022/06/01 12:46:43;;;;;;;1.63;1.00;;;24.80;56.60;;;;;;5095064;28;20448;-83
2022/06/01 12:49:37;;;;;;;1.10;0.90;;;24.80;56.60;;;;;;5095150;28;20931;-87
2022/06/01 12:52:08;;;;;;;1.33;1.00;;;24.90;56.70;;;;;;5095391;28;20429;-82
2022/06/01 12:54:38;;;;;;;1.20;1.00;;;24.80;56.70;;;;;;5094953;28;21040;-83
2022/06/01 12:57:06;;;;;;;2.33;1.00;;;24.80;56.70;;;;;;5094455;28;20538;-83
2022/06/01 12:59:36;;;;;;;1.20;1.10;;;24.80;56.70;;;;;;5095138;28;20435;-83
2022/06/01 13:02:08;;;;;;;2.50;1.07;;;24.80;56.60;;;;;;5094771;28;20927;-83
2022/06/01 13:04:36;;;;;;;1.30;0.90;;;24.80;56.70;;;;;;5095036;28;20475;-83
2022/06/01 13:07:05;;;;;;;1.10;1.00;;;24.80;56.80;;;;;;5093623;28;20480;-83
2022/06/01 13:09:34;;;;;;;1.20;1.10;;;24.80;56.80;;;;;;5094675;28;20930;-82
2022/06/01 13:12:04;;;;;;;1.90;1.20;;;24.80;56.80;;;;;;5094936;28;20444;-83
2022/06/01 13:14:33;;;;;;;1.50;1.10;;;24.80;56.80;;;;;;5094888;28;20440;-82
2022/06/01 13:17:02;;;;;;;1.60;1.00;;;24.70;56.80;;;;;;5094504;28;20440;-83
2022/06/01 13:19:31;;;;;;;1.83;1.00;;;24.80;56.90;;;;;;5094709;28;20444;-88
2022/06/01 13:22:05;;;;;;;1.00;0.90;;;24.70;56.80;;;;;;5094388;28;20443;-83
2022/06/01 13:24:41;;;;;;;1.03;0.93;;;24.70;56.90;;;;;;5094519;28;20578;-84
2022/06/01 13:27:08;;;;;;;1.53;0.90;;;24.70;56.90;;;;;;5094766;28;20436;-83
2022/06/01 13:29:38;;;;;;;1.10;1.00;;;24.70;56.90;;;;;;5094527;28;20432;-84
2022/06/01 13:32:08;;;;;;;1.60;1.37;;;24.70;56.90;;;;;;5094374;28;20443;-83